Time;durP1;ratioP1;P1;durP2;ratioP2;P2;SDS_P1;SDS_P2;PMS_P1;PMS_P2;Temp;Humidity;BMP_temperature;BMP_pressure;BME280_temperature;BME280_humidity;BME280_pressure;Samples;Min_cycle;Max_cycle;Signal;HPM_P1;HPM_P2
2021/10/03 00:01:57;;;;;;;8.40;4.25;;;14.40;99.90;;;;;;5081776;28;20071;-60
2021/10/03 00:04:24;;;;;;;5.50;3.85;;;14.40;99.90;;;;;;5082459;28;20045;-61
2021/10/03 00:06:53;;;;;;;5.78;3.80;;;14.40;99.90;;;;;;5082664;28;20127;-61
2021/10/03 00:09:19;;;;;;;8.05;3.88;;;14.40;99.90;;;;;;5082454;28;20490;-60
2021/10/03 00:11:44;;;;;;;;;;;14.50;99.90;;;;;;5082571;28;20080;-60
2021/10/03 00:14:12;;;;;;;6.03;3.78;;;14.50;99.90;;;;;;5082113;28;19920;-60
2021/10/03 00:16:39;;;;;;;5.68;3.28;;;14.50;99.90;;;;;;5081815;28;20092;-58
2021/10/03 00:19:05;;;;;;;5.15;3.58;;;14.50;99.90;;;;;;5067553;28;20044;-61
2021/10/03 00:21:31;;;;;;;;;;;14.50;99.90;;;;;;5069326;28;20040;-59
2021/10/03 00:23:57;;;;;;;12.63;4.20;;;14.50;99.90;;;;;;5077255;28;19916;-60
2021/10/03 00:26:22;;;;;;;;;;;14.50;99.90;;;;;;5089622;28;20036;-56
2021/10/03 00:28:48;;;;;;;8.98;4.78;;;14.50;99.90;;;;;;5089363;28;19995;-60
2021/10/03 00:31:13;;;;;;;;;;;14.50;99.90;;;;;;5088109;28;20036;-59
2021/10/03 00:33:39;;;;;;;9.98;5.72;;;14.50;99.90;;;;;;5087563;28;19916;-62
2021/10/03 00:36:04;;;;;;;;;;;14.50;99.90;;;;;;5085029;28;20093;-61
2021/10/03 00:38:30;;;;;;;6.13;3.80;;;14.50;99.90;;;;;;5088693;28;19920;-61
2021/10/03 00:40:57;;;;;;;;;;;14.50;99.90;;;;;;5088311;28;20040;-59
2021/10/03 00:43:22;;;;;;;7.35;3.65;;;14.50;99.90;;;;;;5088582;28;19923;-62
2021/10/03 00:45:48;;;;;;;;;;;14.60;99.90;;;;;;5088776;28;20040;-59
2021/10/03 00:48:14;;;;;;;5.68;3.78;;;14.50;99.90;;;;;;5087676;28;19916;-55
2021/10/03 00:50:42;;;;;;;;;;;14.60;99.90;;;;;;5089291;28;20089;-56
2021/10/03 00:53:10;;;;;;;6.45;3.63;;;14.50;99.90;;;;;;5082494;28;19916;-58
2021/10/03 00:55:36;;;;;;;6.03;3.70;;;14.60;99.90;;;;;;5090087;28;20132;-60
2021/10/03 00:58:02;;;;;;;;;;;14.60;99.90;;;;;;5090608;28;20115;-59
2021/10/03 01:00:30;;;;;;;6.00;3.78;;;14.60;99.90;;;;;;5087838;28;19974;-60
2021/10/03 01:02:58;;;;;;;7.85;4.35;;;14.60;99.90;;;;;;5087054;28;20055;-58
2021/10/03 01:05:24;;;;;;;8.45;3.90;;;14.60;99.90;;;;;;5088916;28;20122;-60
2021/10/03 01:07:50;;;;;;;5.65;3.90;;;14.60;99.90;;;;;;5088811;28;20064;-59
2021/10/03 01:10:20;;;;;;;;;;;14.60;99.90;;;;;;5088451;28;20044;-60
2021/10/03 01:12:46;;;;;;;6.75;3.67;;;14.50;99.90;;;;;;5088260;28;19963;-57
2021/10/03 01:15:12;;;;;;;6.50;3.88;;;14.50;99.90;;;;;;5087923;28;20444;-54
2021/10/03 01:17:38;;;;;;;7.85;3.95;;;14.60;99.90;;;;;;5087915;28;20044;-60
2021/10/03 01:20:04;;;;;;;;;;;14.60;99.90;;;;;;5088048;28;20040;-62
2021/10/03 01:22:30;;;;;;;7.53;4.13;;;14.60;99.90;;;;;;5084478;28;20447;-62
2021/10/03 01:24:58;;;;;;;;;;;14.70;99.90;;;;;;5085357;28;20173;-62
2021/10/03 01:27:25;;;;;;;6.40;3.53;;;14.70;99.90;;;;;;5088363;28;19927;-62
2021/10/03 01:29:51;;;;;;;9.65;4.15;;;14.80;99.90;;;;;;5086185;28;20044;-57
2021/10/03 01:32:17;;;;;;;;;;;14.80;99.90;;;;;;5086240;28;20040;-55
2021/10/03 01:34:43;;;;;;;8.82;3.83;;;14.80;99.90;;;;;;5088576;28;19961;-56
2021/10/03 01:37:09;;;;;;;5.53;3.30;;;14.80;99.90;;;;;;5087708;28;20055;-51
2021/10/03 01:39:35;;;;;;;;;;;14.80;99.90;;;;;;5088473;28;20040;-59
2021/10/03 01:42:01;;;;;;;10.60;4.15;;;14.90;99.90;;;;;;5086604;28;19926;-60
2021/10/03 01:44:26;;;;;;;;;;;14.90;99.90;;;;;;5088000;28;20039;-58
2021/10/03 01:46:52;;;;;;;6.50;4.05;;;14.90;99.90;;;;;;5085824;28;19920;-58
2021/10/03 01:49:17;;;;;;;;;;;15.00;99.90;;;;;;5084129;28;20046;-58
2021/10/03 01:51:43;;;;;;;7.40;4.20;;;14.90;99.90;;;;;;5086144;28;20502;-61
2021/10/03 01:54:08;;;;;;;;;;;14.90;99.90;;;;;;5081048;28;20044;-59
2021/10/03 01:56:36;;;;;;;9.32;4.80;;;14.90;99.90;;;;;;5087069;28;19915;-61
2021/10/03 01:59:03;;;;;;;7.45;4.07;;;14.90;99.90;;;;;;5086941;28;20050;-57
2021/10/03 02:01:33;;;;;;;8.98;4.28;;;15.00;99.90;;;;;;5084949;28;20868;-59
2021/10/03 02:03:59;;;;;;;7.03;4.53;;;14.90;99.90;;;;;;5086449;28;20400;-59
2021/10/03 02:06:25;;;;;;;;;;;14.90;99.90;;;;;;5087341;28;20040;-61
2021/10/03 02:08:56;;;;;;;9.77;5.15;;;14.90;99.90;;;;;;5087098;28;20364;-54
2021/10/03 02:11:23;;;;;;;7.88;4.60;;;14.90;99.90;;;;;;5086148;28;20153;-62
2021/10/03 02:13:49;;;;;;;7.47;4.30;;;14.90;99.90;;;;;;5086479;28;20097;-60
2021/10/03 02:16:14;;;;;;;;;;;14.90;99.90;;;;;;5086091;28;20041;-60
2021/10/03 02:18:41;;;;;;;13.35;4.68;;;14.90;99.90;;;;;;5086615;28;19994;-60
2021/10/03 02:21:08;;;;;;;7.13;4.60;;;14.80;99.90;;;;;;5086292;28;20059;-61
2021/10/03 02:23:35;;;;;;;8.52;4.50;;;14.70;99.90;;;;;;5079886;28;20055;-59
2021/10/03 02:26:02;;;;;;;12.85;4.80;;;14.70;99.90;;;;;;5086680;28;20050;-59
2021/10/03 02:28:29;;;;;;;7.68;4.50;;;14.80;99.90;;;;;;5086596;28;20067;-61
2021/10/03 02:30:58;;;;;;;9.20;4.70;;;14.70;99.90;;;;;;5084642;28;20073;-61
2021/10/03 02:33:24;;;;;;;7.75;4.88;;;14.70;99.90;;;;;;5086320;28;20119;-58
2021/10/03 02:35:50;;;;;;;;;;;14.70;99.90;;;;;;5087063;28;20123;-59
2021/10/03 02:38:18;;;;;;;7.55;5.00;;;14.70;99.90;;;;;;5086678;28;19963;-57
2021/10/03 02:40:45;;;;;;;10.18;4.88;;;14.70;99.90;;;;;;5085411;28;20078;-61
2021/10/03 02:43:11;;;;;;;12.85;5.70;;;14.70;99.90;;;;;;5085343;28;20085;-62
2021/10/03 02:45:39;;;;;;;;;;;14.70;99.90;;;;;;5086138;28;20052;-57
2021/10/03 02:48:05;;;;;;;12.23;5.00;;;14.70;99.90;;;;;;5086066;28;19955;-58
2021/10/03 02:50:31;;;;;;;13.07;6.07;;;14.70;99.90;;;;;;5084747;28;20036;-59
2021/10/03 02:52:57;;;;;;;;;;;14.70;99.90;;;;;;5079975;28;20048;-58
2021/10/03 02:55:23;;;;;;;9.00;5.43;;;14.60;99.90;;;;;;5086569;28;19912;-57
2021/10/03 02:57:48;;;;;;;;;;;14.60;99.90;;;;;;5085816;28;20106;-61
2021/10/03 03:00:14;;;;;;;9.88;5.10;;;14.60;99.90;;;;;;5084304;28;20035;-61
2021/10/03 03:02:40;;;;;;;9.43;5.82;;;14.50;99.90;;;;;;5085610;28;20063;-60
2021/10/03 03:05:08;;;;;;;;;;;14.50;99.90;;;;;;5086544;28;20533;-59
2021/10/03 03:07:34;;;;;;;11.57;6.32;;;14.40;99.90;;;;;;5085895;28;19924;-60
2021/10/03 03:09:59;;;;;;;;;;;14.30;99.90;;;;;;5086146;28;20047;-57
2021/10/03 03:12:25;;;;;;;10.48;6.47;;;14.30;99.90;;;;;;5084195;28;19927;-61
2021/10/03 03:14:50;;;;;;;;;;;14.20;99.90;;;;;;5082870;28;20041;-57
2021/10/03 03:17:18;;;;;;;10.65;5.88;;;14.10;99.90;;;;;;5074781;28;19945;-55
2021/10/03 03:19:44;;;;;;;9.57;6.00;;;14.10;99.90;;;;;;5086043;28;20427;-60
2021/10/03 03:22:12;;;;;;;8.43;5.90;;;14.10;99.90;;;;;;5078566;28;20037;-60
2021/10/03 03:24:38;;;;;;;9.90;6.32;;;14.10;99.90;;;;;;5084288;28;20465;-61
2021/10/03 03:27:04;;;;;;;31.75;17.58;;;14.10;99.90;;;;;;5085114;28;20051;-60
2021/10/03 03:29:30;;;;;;;14.02;8.15;;;14.10;99.90;;;;;;5085468;28;20040;-58
2021/10/03 03:31:56;;;;;;;;;;;14.10;99.90;;;;;;5084504;28;20415;-57
2021/10/03 03:34:22;;;;;;;12.20;6.32;;;14.10;99.90;;;;;;5085773;28;20353;-59
2021/10/03 03:36:48;;;;;;;10.52;6.00;;;14.10;99.90;;;;;;5086067;28;20068;-61
2021/10/03 03:39:13;;;;;;;;;;;14.20;99.90;;;;;;5086456;28;20066;-62
2021/10/03 03:41:39;;;;;;;9.05;5.57;;;14.20;99.90;;;;;;5083555;28;19923;-58
2021/10/03 03:44:04;;;;;;;;;;;14.20;99.90;;;;;;5086410;28;20083;-58
2021/10/03 03:46:30;;;;;;;9.07;5.93;;;14.20;99.90;;;;;;5084730;28;19989;-61
2021/10/03 03:48:55;;;;;;;;;;;14.30;99.90;;;;;;5086393;28;20092;-59
2021/10/03 03:51:21;;;;;;;11.32;6.35;;;14.20;99.90;;;;;;5085007;28;19951;-60
2021/10/03 03:53:46;;;;;;;;;;;14.20;99.90;;;;;;5085452;28;20064;-60
2021/10/03 03:56:12;;;;;;;11.18;7.20;;;14.30;99.90;;;;;;5088744;28;19919;-56
2021/10/03 03:58:37;;;;;;;;;;;14.30;99.90;;;;;;5090068;28;20130;-57
2021/10/03 04:01:03;;;;;;;15.50;6.38;;;14.40;99.90;;;;;;5087404;28;19924;-59
2021/10/03 04:03:28;;;;;;;;;;;14.30;99.90;;;;;;5089995;28;20032;-61
2021/10/03 04:05:54;;;;;;;10.43;5.70;;;14.30;99.90;;;;;;5086686;28;19920;-59
2021/10/03 04:08:23;;;;;;;;;;;14.30;99.90;;;;;;5088554;28;20153;-61
2021/10/03 04:10:50;;;;;;;9.60;6.57;;;14.40;99.90;;;;;;5088986;28;19927;-61
2021/10/03 04:13:16;;;;;;;11.38;5.78;;;14.40;99.90;;;;;;5088965;28;20075;-61
2021/10/03 04:15:41;;;;;;;;;;;14.40;99.90;;;;;;5090010;28;20138;-61
2021/10/03 04:18:07;;;;;;;8.52;5.60;;;14.40;99.90;;;;;;5089950;28;19915;-61
2021/10/03 04:20:34;;;;;;;;;;;14.40;99.90;;;;;;5087774;28;20040;-59
2021/10/03 04:22:59;;;;;;;10.68;6.28;;;14.40;99.90;;;;;;5088622;28;19927;-58
2021/10/03 04:25:25;;;;;;;;;;;14.40;99.90;;;;;;5090056;28;20040;-61
2021/10/03 04:27:50;;;;;;;11.57;6.45;;;14.50;99.90;;;;;;5083523;28;19921;-59
2021/10/03 04:30:16;;;;;;;;;;;14.50;99.90;;;;;;5087402;28;20125;-61
2021/10/03 04:32:41;;;;;;;11.90;6.22;;;14.50;99.90;;;;;;5089117;28;19916;-61
2021/10/03 04:35:07;;;;;;;;;;;14.50;99.90;;;;;;5089034;28;20036;-61
2021/10/03 04:37:33;;;;;;;8.10;5.55;;;14.50;99.90;;;;;;5088894;28;19969;-61
2021/10/03 04:39:58;;;;;;;;;;;14.50;99.90;;;;;;5088441;28;20040;-60
2021/10/03 04:42:23;;;;;;;11.00;6.40;;;14.50;99.90;;;;;;5087980;28;19916;-62
2021/10/03 04:44:49;;;;;;;;;;;14.60;99.90;;;;;;5089680;28;20119;-60
2021/10/03 04:47:14;;;;;;;12.43;6.13;;;14.60;99.90;;;;;;5087565;28;19973;-59
2021/10/03 04:49:40;;;;;;;;;;;14.60;99.90;;;;;;5088512;28;20043;-60
2021/10/03 04:52:06;;;;;;;11.32;6.30;;;14.60;99.90;;;;;;5085762;28;19923;-59
2021/10/03 04:54:32;;;;;;;;;;;14.60;99.90;;;;;;5089392;28;20511;-60
2021/10/03 04:56:57;;;;;;;10.80;6.85;;;14.70;99.90;;;;;;5087601;28;19920;-59
2021/10/03 04:59:23;;;;;;;;;;;14.70;99.90;;;;;;5085124;28;20068;-60
2021/10/03 05:01:48;;;;;;;9.65;5.65;;;14.80;99.90;;;;;;5086441;28;20288;-60
2021/10/03 05:04:14;;;;;;;;;;;14.80;99.90;;;;;;5088076;28;20050;-60
2021/10/03 05:06:40;;;;;;;8.45;5.15;;;14.80;99.90;;;;;;5080239;28;19920;-60
2021/10/03 05:09:05;;;;;;;;;;;14.80;99.90;;;;;;5088084;28;20040;-61
2021/10/03 05:11:31;;;;;;;10.02;5.82;;;14.80;99.90;;;;;;5086966;28;20027;-60
2021/10/03 05:13:56;;;;;;;;;;;14.80;99.90;;;;;;5088692;28;20077;-62
2021/10/03 05:16:23;;;;;;;9.35;5.47;;;14.80;99.90;;;;;;5087225;28;20281;-59
2021/10/03 05:18:48;;;;;;;10.65;5.90;;;14.80;99.90;;;;;;5088096;28;20531;-61
2021/10/03 05:21:14;;;;;;;;;;;14.80;99.90;;;;;;5088044;28;20089;-60
2021/10/03 05:23:39;;;;;;;7.95;4.90;;;14.80;99.90;;;;;;5087411;28;19944;-61
2021/10/03 05:26:05;;;;;;;;;;;14.80;99.90;;;;;;5087843;28;20097;-60
2021/10/03 05:28:31;;;;;;;10.63;5.47;;;14.80;99.90;;;;;;5080285;28;20265;-61
2021/10/03 05:30:56;;;;;;;;;;;14.80;99.90;;;;;;5087499;28;20050;-60
2021/10/03 05:33:23;;;;;;;8.13;5.85;;;14.80;99.90;;;;;;5087302;28;19970;-61
2021/10/03 05:35:49;;;;;;;10.43;6.22;;;14.80;99.90;;;;;;5087910;28;20048;-61
2021/10/03 05:38:14;;;;;;;;;;;14.70;99.90;;;;;;5088030;28;20043;-60
2021/10/03 05:40:40;;;;;;;10.02;5.15;;;14.70;99.90;;;;;;5086916;28;20376;-64
2021/10/03 05:43:05;;;;;;;;;;;14.60;99.90;;;;;;5086488;28;20407;-60
2021/10/03 05:45:31;;;;;;;9.57;5.88;;;14.60;99.90;;;;;;5086840;28;19916;-61
2021/10/03 05:47:56;;;;;;;;;;;14.60;99.90;;;;;;5088558;28;20036;-60
2021/10/03 05:50:22;;;;;;;10.82;5.97;;;14.60;99.90;;;;;;5086778;28;20014;-59
2021/10/03 05:52:48;;;;;;;;;;;14.70;99.90;;;;;;5086509;28;20051;-61
2021/10/03 05:55:14;;;;;;;8.43;5.35;;;14.60;99.90;;;;;;5084438;28;20120;-58
2021/10/03 05:57:40;;;;;;;;;;;14.70;99.90;;;;;;5083691;28;20412;-58
2021/10/03 06:00:06;;;;;;;10.00;5.68;;;14.70;99.90;;;;;;5085296;28;19990;-58
2021/10/03 06:02:32;;;;;;;12.15;6.28;;;14.70;99.90;;;;;;5085959;28;20040;-57
2021/10/03 06:04:57;;;;;;;;;;;14.70;99.90;;;;;;5088062;28;20479;-58
2021/10/03 06:07:23;;;;;;;8.95;5.63;;;14.80;99.90;;;;;;5078967;28;19924;-57
2021/10/03 06:09:48;;;;;;;;;;;14.80;99.90;;;;;;5087700;28;20048;-56
2021/10/03 06:12:14;;;;;;;10.50;5.57;;;14.80;99.90;;;;;;5085548;28;19922;-60
2021/10/03 06:14:40;;;;;;;;;;;14.80;99.90;;;;;;5086416;28;20043;-66
2021/10/03 06:17:05;;;;;;;15.02;5.25;;;14.90;99.90;;;;;;5086435;28;19923;-57
2021/10/03 06:19:31;;;;;;;;;;;14.90;99.90;;;;;;5086090;28;20044;-62
2021/10/03 06:21:58;;;;;;;9.98;5.43;;;14.90;99.90;;;;;;5086221;28;19927;-58
2021/10/03 06:24:23;;;;;;;9.98;5.55;;;14.90;99.90;;;;;;5087429;28;20040;-63
2021/10/03 06:26:49;;;;;;;;;;;14.90;99.90;;;;;;5086986;28;20071;-57
2021/10/03 06:29:16;;;;;;;7.10;4.72;;;14.90;99.90;;;;;;5081768;28;20221;-64
2021/10/03 06:31:42;;;;;;;8.30;5.07;;;14.90;99.90;;;;;;5085640;28;20075;-63
2021/10/03 06:34:07;;;;;;;;;;;14.90;99.90;;;;;;5087558;28;20579;-54
2021/10/03 06:36:33;;;;;;;8.45;4.90;;;14.90;99.90;;;;;;5087252;28;19959;-63
2021/10/03 06:38:58;;;;;;;;;;;14.90;99.90;;;;;;5087034;28;20036;-64
2021/10/03 06:41:24;;;;;;;6.38;4.30;;;14.90;99.90;;;;;;5085773;28;19928;-58
2021/10/03 06:43:50;;;;;;;;;;;14.90;99.90;;;;;;5087189;28;20068;-61
2021/10/03 06:46:16;;;;;;;7.18;4.18;;;14.90;99.90;;;;;;5086133;28;19928;-59
2021/10/03 06:48:41;;;;;;;7.45;4.30;;;14.90;99.90;;;;;;5086733;28;20035;-59
2021/10/03 06:51:07;;;;;;;;;;;14.90;99.90;;;;;;5085990;28;20043;-58
2021/10/03 06:53:34;;;;;;;8.32;4.40;;;14.90;99.90;;;;;;5086028;28;20011;-61
2021/10/03 06:56:01;;;;;;;9.07;4.50;;;15.00;99.90;;;;;;5086070;28;20611;-60
2021/10/03 06:58:27;;;;;;;7.00;4.13;;;14.90;99.90;;;;;;5083031;28;20044;-61
2021/10/03 07:00:53;;;;;;;8.05;4.57;;;15.00;99.90;;;;;;5085332;28;20032;-61
2021/10/03 07:03:18;;;;;;;;;;;15.00;99.90;;;;;;5086910;28;20046;-62
2021/10/03 07:05:44;;;;;;;7.43;4.60;;;14.90;99.90;;;;;;5086680;28;19946;-60
2021/10/03 07:08:12;;;;;;;;;;;14.90;99.90;;;;;;5086753;28;20495;-55
2021/10/03 07:10:37;;;;;;;;;;;14.90;99.90;;;;;;5086262;28;20018;-61
2021/10/03 07:13:03;;;;;;;7.22;4.60;;;14.90;99.90;;;;;;5085721;28;20010;-65
2021/10/03 07:15:28;;;;;;;;;;;14.90;99.90;;;;;;5082749;28;20040;-61
2021/10/03 07:17:54;;;;;;;10.00;4.22;;;14.90;99.90;;;;;;5086281;28;20006;-60
2021/10/03 07:20:20;;;;;;;8.55;3.95;;;15.00;99.90;;;;;;5083409;28;20111;-58
2021/10/03 07:22:45;;;;;;;;;;;15.00;99.90;;;;;;5065796;28;20559;-58
2021/10/03 07:25:11;;;;;;;8.88;3.97;;;15.00;99.90;;;;;;5065053;28;19927;-61
2021/10/03 07:27:36;;;;;;;;;;;15.00;99.90;;;;;;5072514;28;20067;-60
2021/10/03 07:30:04;;;;;;;8.05;4.07;;;15.00;99.90;;;;;;5082107;28;19956;-58
2021/10/03 07:32:30;;;;;;;8.18;4.68;;;15.10;99.90;;;;;;5074425;28;20048;-60
2021/10/03 07:34:56;;;;;;;9.45;5.47;;;15.10;99.90;;;;;;5079641;28;20481;-60
2021/10/03 07:37:22;;;;;;;;;;;15.20;99.90;;;;;;5085348;28;20048;-60
2021/10/03 07:39:47;;;;;;;8.85;5.05;;;15.30;99.90;;;;;;5080982;28;19932;-60
2021/10/03 07:42:13;;;;;;;8.45;5.05;;;15.40;99.90;;;;;;5064628;28;20039;-63
2021/10/03 07:44:39;;;;;;;;;;;15.50;99.90;;;;;;5063262;28;20048;-61
2021/10/03 07:47:05;;;;;;;6.55;3.97;;;15.50;99.90;;;;;;5083350;28;20005;-60
2021/10/03 07:49:31;;;;;;;;;;;15.60;99.90;;;;;;5063029;28;20054;-62
2021/10/03 07:51:57;;;;;;;6.90;3.70;;;15.70;99.90;;;;;;5077177;28;19920;-60
2021/10/03 07:54:22;;;;;;;19.35;9.75;;;15.80;99.90;;;;;;5079896;28;20048;-61
2021/10/03 07:56:48;;;;;;;;;;;15.90;99.90;;;;;;5081438;28;20028;-57
2021/10/03 07:59:14;;;;;;;15.98;5.03;;;15.90;99.90;;;;;;5083338;28;19919;-61
2021/10/03 08:01:39;;;;;;;;;;;16.00;99.90;;;;;;5081444;28;20129;-60
2021/10/03 08:04:05;;;;;;;8.57;4.00;;;15.90;99.90;;;;;;5078373;28;19960;-58
2021/10/03 08:06:32;;;;;;;;;;;15.80;99.90;;;;;;5077864;28;20038;-61
2021/10/03 08:08:58;;;;;;;7.43;4.13;;;15.90;99.90;;;;;;5080519;28;19981;-58
2021/10/03 08:11:24;;;;;;;8.02;5.38;;;15.90;99.90;;;;;;5076991;28;20044;-61
2021/10/03 08:13:50;;;;;;;;;;;16.00;99.90;;;;;;5050276;22;20051;-60
2021/10/03 08:16:18;;;;;;;5.57;3.55;;;16.00;99.90;;;;;;5038553;28;19932;-61
2021/10/03 08:18:44;;;;;;;8.93;3.85;;;16.00;99.90;;;;;;5039526;28;20124;-61
2021/10/03 08:21:10;;;;;;;5.95;3.72;;;16.00;99.90;;;;;;5036459;28;20037;-60
2021/10/03 08:23:36;;;;;;;;;;;16.00;99.90;;;;;;5038795;28;20044;-59
2021/10/03 08:26:01;;;;;;;9.13;4.20;;;16.00;99.90;;;;;;5040316;28;19971;-61
2021/10/03 08:28:27;;;;;;;;;;;16.10;99.90;;;;;;5041757;28;20396;-62
2021/10/03 08:30:53;;;;;;;7.00;3.88;;;16.10;99.90;;;;;;5045276;28;19920;-61
2021/10/03 08:33:18;;;;;;;;;;;16.20;99.90;;;;;;5047342;28;20508;-58
2021/10/03 08:35:44;;;;;;;10.25;3.95;;;16.30;99.90;;;;;;5040553;28;19917;-58
2021/10/03 08:38:09;;;;;;;;;;;16.40;99.90;;;;;;5055215;28;20033;-60
2021/10/03 08:40:35;;;;;;;9.38;3.67;;;16.50;99.90;;;;;;5042204;28;19912;-59
2021/10/03 08:43:02;;;;;;;;;;;16.70;99.90;;;;;;5046826;28;20504;-58
2021/10/03 08:45:28;;;;;;;8.82;4.25;;;16.80;99.90;;;;;;5048308;28;19927;-61
2021/10/03 08:47:54;;;;;;;;;;;17.00;99.90;;;;;;5049150;28;20115;-58
2021/10/03 08:50:19;;;;;;;6.65;3.42;;;17.10;99.90;;;;;;5047937;28;19924;-59
2021/10/03 08:52:45;;;;;;;;;;;17.00;99.90;;;;;;5047918;28;20051;-59
2021/10/03 08:55:13;;;;;;;5.05;3.35;;;17.00;99.90;;;;;;5048313;28;19959;-55
2021/10/03 08:57:40;;;;;;;8.15;5.38;;;16.90;99.90;;;;;;5048039;28;20449;-62
2021/10/03 09:00:19;;;;;;;12.23;7.80;;;16.90;99.90;;;;;;5047654;28;20048;-60
2021/10/03 09:03:07;;;;;;;5.70;3.63;;;16.90;99.90;;;;;;5047671;28;20041;-59
2021/10/03 09:05:44;;;;;;;5.40;3.70;;;16.90;99.90;;;;;;5048705;28;20120;-60
2021/10/03 09:08:11;;;;;;;6.43;3.90;;;16.90;99.90;;;;;;5048046;28;20072;-61
2021/10/03 09:10:57;;;;;;;13.13;6.70;;;16.90;99.90;;;;;;5047802;28;20120;-61
2021/10/03 09:13:30;;;;;;;9.52;4.18;;;16.90;99.90;;;;;;5048045;28;20049;-60
2021/10/03 09:16:15;;;;;;;11.68;5.05;;;17.00;99.90;;;;;;5047060;28;20045;-60
2021/10/03 09:18:53;;;;;;;17.98;9.27;;;17.10;99.90;;;;;;5048680;28;20114;-60
2021/10/03 09:21:33;;;;;;;9.00;5.90;;;17.20;99.90;;;;;;5047076;28;20041;-63
2021/10/03 09:24:02;;;;;;;6.60;3.38;;;17.40;99.90;;;;;;5048550;28;20063;-60
2021/10/03 09:26:28;;;;;;;5.85;3.45;;;17.40;99.90;;;;;;5049029;28;20388;-59
2021/10/03 09:28:54;;;;;;;5.55;3.65;;;17.50;99.90;;;;;;5048584;28;20068;-60
2021/10/03 09:31:21;;;;;;;;;;;17.40;99.90;;;;;;5046012;28;20489;-59
2021/10/03 09:33:55;;;;;;;5.03;3.30;;;17.30;99.90;;;;;;5048388;28;20007;-61
2021/10/03 09:36:25;;;;;;;7.15;3.75;;;17.30;99.90;;;;;;5030198;28;20057;-61
2021/10/03 09:39:03;;;;;;;8.05;3.40;;;17.30;99.90;;;;;;5047465;28;20820;-61
2021/10/03 09:41:37;;;;;;;7.93;3.22;;;17.30;99.90;;;;;;5027901;28;20065;-60
2021/10/03 09:44:10;;;;;;;6.30;3.72;;;17.20;99.90;;;;;;5047875;28;20048;-59
2021/10/03 09:46:50;;;;;;;5.28;3.33;;;17.20;99.90;;;;;;5046181;28;20041;-60
2021/10/03 09:49:34;;;;;;;6.85;3.60;;;17.20;99.90;;;;;;5046612;28;20048;-60
2021/10/03 09:52:00;;;;;;;4.60;3.03;;;17.20;99.90;;;;;;5045987;28;20047;-60
2021/10/03 09:54:25;;;;;;;;;;;17.20;99.90;;;;;;5048376;28;20040;-60
2021/10/03 09:56:52;;;;;;;7.03;3.50;;;17.20;99.90;;;;;;5047422;28;19936;-62
2021/10/03 09:59:19;;;;;;;6.45;3.95;;;17.20;99.90;;;;;;5047589;28;20032;-60
2021/10/03 10:01:46;;;;;;;4.07;3.13;;;17.30;99.90;;;;;;5046614;28;20400;-58
2021/10/03 10:04:17;;;;;;;8.95;5.68;;;17.30;99.90;;;;;;5025207;28;20041;-61
2021/10/03 10:06:44;;;;;;;6.85;4.03;;;17.30;99.90;;;;;;5044109;28;20079;-61
2021/10/03 10:09:20;;;;;;;4.93;3.10;;;17.40;99.90;;;;;;5041069;28;20136;-60
2021/10/03 10:11:48;;;;;;;8.70;3.90;;;17.40;99.90;;;;;;5037402;28;20041;-61
2021/10/03 10:14:15;;;;;;;8.20;3.90;;;17.50;99.90;;;;;;5045995;28;20094;-61
2021/10/03 10:16:47;;;;;;;4.82;3.13;;;17.50;99.90;;;;;;5041111;28;20758;-60
2021/10/03 10:19:33;;;;;;;8.15;3.67;;;17.50;99.90;;;;;;5045704;28;20045;-60
2021/10/03 10:22:19;;;;;;;7.88;3.15;;;17.60;99.90;;;;;;5045832;28;20053;-61
2021/10/03 10:24:47;;;;;;;5.70;3.33;;;17.60;99.90;;;;;;5046977;28;20090;-58
2021/10/03 10:27:19;;;;;;;5.05;3.38;;;17.60;99.90;;;;;;5046410;28;20736;-60
2021/10/03 10:29:51;;;;;;;6.90;3.45;;;17.50;99.90;;;;;;5046594;28;20052;-60
2021/10/03 10:32:17;;;;;;;8.30;3.67;;;17.50;99.90;;;;;;5044727;28;20043;-60
2021/10/03 10:35:01;;;;;;;;;;;17.50;99.90;;;;;;5046786;28;20147;-60
2021/10/03 10:37:49;;;;;;;6.45;3.80;;;17.40;99.90;;;;;;5046825;28;19917;-57
2021/10/03 10:40:23;;;;;;;6.55;3.97;;;17.30;99.90;;;;;;5028231;28;20048;-60
2021/10/03 10:42:53;;;;;;;6.07;3.38;;;17.10;99.90;;;;;;5045620;28;20052;-59
2021/10/03 10:45:28;;;;;;;6.72;3.30;;;17.10;99.90;;;;;;5046440;28;20188;-59
2021/10/03 10:48:09;;;;;;;6.60;3.30;;;17.10;99.90;;;;;;5046177;28;20169;-57
2021/10/03 10:50:42;;;;;;;8.65;4.30;;;17.30;99.90;;;;;;5046217;28;20036;-60
2021/10/03 10:53:28;;;;;;;6.90;4.70;;;17.30;99.90;;;;;;5045637;28;20057;-60
2021/10/03 10:56:09;;;;;;;12.25;7.60;;;17.30;99.90;;;;;;5046211;28;20102;-61
2021/10/03 10:58:48;;;;;;;10.30;4.82;;;17.10;99.90;;;;;;5046259;28;20040;-59
2021/10/03 11:01:14;;;;;;;5.93;3.45;;;17.10;99.90;;;;;;5044338;28;20041;-59
2021/10/03 11:03:42;;;;;;;;;;;17.00;99.90;;;;;;5046875;28;20044;-61
2021/10/03 11:06:14;;;;;;;6.10;3.70;;;17.00;99.90;;;;;;5046602;28;20279;-58
2021/10/03 11:08:58;;;;;;;5.57;3.50;;;16.90;99.90;;;;;;5046070;28;20073;-55
2021/10/03 11:11:31;;;;;;;6.50;3.90;;;16.90;99.90;;;;;;5045349;28;20112;-59
2021/10/03 11:14:17;;;;;;;7.38;4.20;;;16.90;99.90;;;;;;5046096;28;20045;-60
2021/10/03 11:16:48;;;;;;;5.35;3.70;;;16.90;99.90;;;;;;5045826;28;20055;-60
2021/10/03 11:19:25;;;;;;;5.40;3.08;;;17.00;99.90;;;;;;5046221;28;20120;-58
2021/10/03 11:21:52;;;;;;;4.43;3.47;;;17.10;99.90;;;;;;5045043;28;20130;-55
2021/10/03 11:24:19;;;;;;;6.03;3.45;;;17.10;99.90;;;;;;5060784;28;20056;-55
2021/10/03 11:27:01;;;;;;;8.05;3.63;;;17.20;99.90;;;;;;5046278;28;20043;-56
2021/10/03 11:29:30;;;;;;;8.48;3.88;;;17.30;99.90;;;;;;5046515;28;20042;-61
2021/10/03 11:31:58;;;;;;;5.43;3.03;;;17.30;99.90;;;;;;5044908;28;20302;-58
2021/10/03 11:34:41;;;;;;;7.78;3.20;;;17.30;99.90;;;;;;5046479;28;20509;-61
2021/10/03 11:37:29;;;;;;;6.05;3.30;;;17.30;99.90;;;;;;5046018;28;20055;-56
2021/10/03 11:40:07;;;;;;;5.95;3.80;;;17.30;99.90;;;;;;5046200;28;20041;-57
2021/10/03 11:42:45;;;;;;;7.50;3.20;;;17.30;99.90;;;;;;5045542;28;20044;-59
2021/10/03 11:45:20;;;;;;;6.93;3.60;;;17.30;99.90;;;;;;5044491;28;20052;-57
2021/10/03 11:47:57;;;;;;;5.10;3.17;;;17.40;99.90;;;;;;5045743;28;20048;-58
2021/10/03 11:50:42;;;;;;;7.40;4.22;;;17.40;99.90;;;;;;5044840;28;20059;-62
2021/10/03 11:53:19;;;;;;;6.10;3.47;;;17.40;99.90;;;;;;5044977;28;20044;-61
2021/10/03 11:55:51;;;;;;;6.22;3.17;;;17.40;99.90;;;;;;5027561;28;20037;-61
2021/10/03 11:58:20;;;;;;;4.13;2.85;;;17.40;99.90;;;;;;5045134;28;20578;-60
2021/10/03 12:00:58;;;;;;;8.60;3.05;;;17.40;99.90;;;;;;5043464;28;20392;-60
2021/10/03 12:03:26;;;;;;;7.57;3.40;;;17.50;99.90;;;;;;5045599;28;20087;-59
2021/10/03 12:05:53;;;;;;;5.68;3.03;;;17.50;99.90;;;;;;5045309;28;20098;-57
2021/10/03 12:08:20;;;;;;;3.35;2.75;;;17.50;99.90;;;;;;5045463;28;20416;-60
2021/10/03 12:10:54;;;;;;;9.38;3.20;;;17.60;99.90;;;;;;5044464;28;20037;-59
2021/10/03 12:13:24;;;;;;;4.20;3.00;;;17.60;99.90;;;;;;5046165;28;20045;-61
2021/10/03 12:15:56;;;;;;;4.18;3.25;;;17.60;99.90;;;;;;5048409;28;20033;-60
2021/10/03 12:18:30;;;;;;;9.48;4.57;;;17.60;99.90;;;;;;5049115;28;20492;-61
2021/10/03 12:20:57;;;;;;;5.40;2.80;;;17.70;99.90;;;;;;5047959;28;20091;-60
2021/10/03 12:23:42;;;;;;;4.28;3.08;;;17.70;99.90;;;;;;5049017;28;20102;-61
2021/10/03 12:26:30;;;;;;;4.30;2.88;;;17.70;99.90;;;;;;5048451;28;20051;-60
2021/10/03 12:29:04;;;;;;;5.07;2.97;;;17.70;99.90;;;;;;5048836;28;20123;-61
2021/10/03 12:31:49;;;;;;;5.93;3.55;;;17.70;99.90;;;;;;5039135;28;20044;-60
2021/10/03 12:34:14;;;;;;;4.38;2.60;;;17.70;99.90;;;;;;5048743;28;20036;-61
2021/10/03 12:36:40;;;;;;;;;;;17.70;99.90;;;;;;5049245;28;20043;-59
2021/10/03 12:39:07;;;;;;;11.93;3.63;;;17.70;99.90;;;;;;5048076;28;19927;-60
2021/10/03 12:41:32;;;;;;;8.68;3.00;;;17.70;99.90;;;;;;5047797;28;20519;-62
2021/10/03 12:43:58;;;;;;;;;;;17.70;99.90;;;;;;5047700;28;20044;-61
2021/10/03 12:46:24;;;;;;;6.25;2.95;;;17.80;99.80;;;;;;5048245;28;19916;-60
2021/10/03 12:48:50;;;;;;;4.88;3.15;;;17.80;99.40;;;;;;5048507;28;20045;-61
2021/10/03 12:51:16;;;;;;;5.00;3.40;;;17.80;99.80;;;;;;5047237;28;20052;-60
2021/10/03 12:53:42;;;;;;;;;;;17.80;99.50;;;;;;5048689;28;20037;-60
2021/10/03 12:56:07;;;;;;;7.38;3.55;;;17.80;99.60;;;;;;5047782;28;19928;-60
2021/10/03 12:58:33;;;;;;;;;;;17.80;98.80;;;;;;5048918;28;20037;-61
2021/10/03 13:00:59;;;;;;;9.55;3.00;;;17.80;98.80;;;;;;5046140;28;20019;-61
2021/10/03 13:03:24;;;;;;;3.90;2.70;;;17.90;99.30;;;;;;5048088;28;20052;-62
2021/10/03 13:05:50;;;;;;;7.05;3.33;;;18.10;98.70;;;;;;5048448;28;20037;-61
2021/10/03 13:08:16;;;;;;;;;;;18.10;97.80;;;;;;5048172;28;20044;-61
2021/10/03 13:10:41;;;;;;;10.25;2.95;;;18.20;98.30;;;;;;5046982;28;19917;-62
2021/10/03 13:13:07;;;;;;;5.93;3.05;;;18.20;98.20;;;;;;5047401;28;20697;-58
2021/10/03 13:15:33;;;;;;;;;;;18.20;97.90;;;;;;5048030;28;20086;-61